Weather observations for the past three days for
Shirley, Brookhaven Airport
| Date | Time (edt) | Wind (mph) | Vis. (mi.) | Weather | Sky Cond. | Temperature (ºF) | Relative Humidity | Wind Chill (°F) | Heat Index (°F) | Pressure | Precipitation (in) | ||||||
|---|---|---|---|---|---|---|---|---|---|---|---|---|---|---|---|---|---|
| Air | Dwpt | 6 hour | altimeter (in) | sea level (mb) | 1 hr | 3 hr | 6 hr | ||||||||||
| Max. | Min. | ||||||||||||||||
| 06 | 07:56 | S 16 G 29 | 9.00 | Mostly Cloudy | BKN010 | 57.9 | 53.1 | 57.9 | 55.9 | 84% | 29.88 | 1011.8 | |||||
| 06 | 06:56 | SW 14 G 22 | 9.00 | A Few Clouds | FEW010 | 57 | 53.1 | 87% | 29.88 | 1011.7 | |||||||
| 06 | 05:56 | SW 12 G 25 | 8.00 | Partly Cloudy | SCT009 | 55.9 | 53.1 | 90% | 29.87 | 1011.5 | |||||||
| 06 | 04:56 | SW 12 G 22 | 10.00 | Mostly Cloudy | BKN010 | 55.9 | 53.1 | 90% | 29.88 | 1011.8 | |||||||
| 06 | 03:56 | SW 14 G 26 | 10.00 | A Few Clouds | FEW012 | 57 | 53.1 | 87% | 29.89 | 1012.1 | |||||||
| 06 | 02:56 | SW 14 G 29 | 10.00 | Fair | CLR | 57.9 | 52 | 81% | 29.89 | 1012.2 | |||||||
| 06 | 01:56 | SW 15 G 29 | 10.00 | Fair | CLR | 57 | 53.1 | 59 | 57 | 87% | 29.89 | 1012.2 | |||||
| 06 | 00:56 | SW 14 G 25 | 10.00 | Fair | CLR | 57.9 | 52 | 81% | 29.9 | 1012.6 | |||||||
| 05 | 23:56 | S 15 G 31 | 10.00 | Fair | CLR | 57.9 | 52 | 81% | 29.91 | 1012.7 | |||||||
| 05 | 22:56 | SW 16 G 26 | 10.00 | Fair | CLR | 57 | 51.1 | 81% | 29.9 | 1012.6 | |||||||
| 05 | 21:56 | SW 16 G 28 | 10.00 | Fair | CLR | 57.9 | 51.1 | 78% | 29.9 | 1012.6 | |||||||
| 05 | 20:56 | SW 14 G 33 | 10.00 | Fair | CLR | 59 | 51.1 | 75% | 29.88 | 1012.0 | |||||||
| 05 | 19:56 | SW 15 G 29 | 10.00 | Fair | CLR | 59 | 50 | 63 | 59 | 72% | 29.86 | 1011.2 | |||||
| 05 | 18:56 | SW 21 G 37 | 10.00 | Fair and Breezy | CLR | 60.1 | 51.1 | 72% | 29.84 | 1010.4 | |||||||
| 05 | 17:56 | SW 20 G 31 | 10.00 | Fair | CLR | 60.1 | 51.1 | 72% | 29.83 | 1010.1 | |||||||
| 05 | 16:56 | SW 18 G 32 | 10.00 | Fair | CLR | 62.1 | 51.1 | 67% | 29.82 | 1009.8 | |||||||
| 05 | 15:56 | SW 22 G 32 | 10.00 | Fair and Breezy | CLR | 62.1 | 51.1 | 67% | 29.83 | 1010.2 | |||||||
| 05 | 14:56 | S 18 G 28 | 10.00 | Fair | CLR | 61 | 51.1 | 70% | 29.86 | 1011.3 | |||||||
| 05 | 13:56 | SW 17 G 28 | 10.00 | Fair | CLR | 62.1 | 51.1 | 63 | 57 | 67% | 29.87 | 1011.6 | |||||
| 05 | 12:56 | SW 16 | 10.00 | Fair | CLR | 62.1 | 52 | 70% | 29.88 | 1011.8 | |||||||
| 05 | 11:56 | S 15 G 21 | 10.00 | Fair | CLR | 62.1 | 52 | 70% | 29.89 | 1012.1 | |||||||
| 05 | 10:56 | S 17 G 23 | 10.00 | Fair | CLR | 61 | 52 | 72% | 29.9 | 1012.6 | |||||||
| 05 | 09:56 | S 14 | 10.00 | Fair | CLR | 60.1 | 52 | 75% | 29.9 | 1012.4 | |||||||
| 05 | 08:56 | S 10 | 10.00 | A Few Clouds | FEW110 | 57.9 | 52 | 81% | 29.89 | 1012.2 | |||||||
| 05 | 07:56 | SW 9 | 10.00 | Fair | CLR | 57.9 | 52 | 57.9 | 53.1 | 81% | 29.89 | 1012.2 | |||||
| 05 | 06:56 | SW 9 | 8.00 | Partly Cloudy | SCT110 | 55 | 51.1 | 87% | 29.88 | 1011.9 | |||||||
| 05 | 05:56 | SW 10 | 8.00 | Fair | CLR | 53.1 | 50 | 89% | 29.86 | 1011.3 | |||||||
| 05 | 04:56 | S 9 | 10.00 | Partly Cloudy | SCT120 | 54 | 51.1 | 90% | 29.86 | 1011.2 | |||||||
| 05 | 03:56 | SW 8 | 10.00 | Partly Cloudy | SCT090 | 54 | 50 | 87% | 29.87 | 1011.5 | |||||||
| 05 | 02:56 | SW 9 | 10.00 | Fair | CLR | 54 | 48.9 | 83% | 29.87 | 1011.5 | |||||||
| 05 | 01:56 | SW 7 | 10.00 | Fair | CLR | 53.1 | 48.9 | 55 | 52 | 86% | 29.88 | 1011.8 | |||||
| 05 | 00:56 | SW 7 | 10.00 | Fair | CLR | 52 | 48.9 | 89% | 29.89 | 1012.2 | |||||||
| 04 | 23:56 | S 9 | 10.00 | Fair | CLR | 54 | 48.9 | 83% | 29.9 | 1012.5 | |||||||
| 04 | 22:56 | SW 9 | 10.00 | Fair | CLR | 55 | 48.9 | 80% | 29.9 | 1012.4 | |||||||
| 04 | 21:56 | SW 9 | 10.00 | Fair | CLR | 54 | 48 | 80% | 29.9 | 1012.4 | |||||||
| 04 | 20:56 | SW 8 | 10.00 | Fair | CLR | 54 | 48 | 80% | 29.88 | 1011.9 | |||||||
| 04 | 19:56 | S 9 G 21 | 10.00 | Fair | CLR | 54 | 48 | 62.1 | 53.1 | 80% | 29.86 | 1011.3 | |||||
| 04 | 18:56 | SW 9 G 22 | 10.00 | Fair | CLR | 54 | 48 | 80% | 29.86 | 1011.1 | |||||||
| 04 | 17:56 | SW 14 G 26 | 10.00 | Fair | CLR | 57 | 46.9 | 69% | 29.86 | 1011.3 | |||||||
| 04 | 16:56 | S 18 G 32 | 10.00 | Fair | CLR | 57.9 | 46 | 65% | 29.86 | 1011.2 | |||||||
| 04 | 15:56 | S 16 G 26 | 10.00 | Fair | CLR | 61 | 45 | 56% | 29.87 | 1011.5 | |||||||
| 04 | 14:56 | SW 15 G 30 | 10.00 | Fair | CLR | 62.1 | 43 | 50% | 29.88 | 1011.7 | |||||||
| 04 | 13:56 | S 16 | 10.00 | Fair | CLR | 61 | 45 | 62.1 | 55.9 | 56% | 29.89 | 1012.2 | |||||
| 04 | 12:56 | S 14 | 10.00 | Fair | CLR | 61 | 45 | 56% | 29.91 | 1012.7 | |||||||
| 04 | 11:56 | SW 15 G 23 | 10.00 | Fair | CLR | 62.1 | 41 | 46% | 29.93 | 1013.4 | |||||||
| 04 | 10:56 | SW 12 | 10.00 | Fair | CLR | 60.1 | 41 | 50% | 29.94 | 1013.8 | |||||||
| 04 | 09:56 | SW 12 G 22 | 10.00 | Fair | CLR | 59 | 41 | 51% | 29.94 | 1013.9 | |||||||
| 04 | 08:56 | W 15 G 22 | 10.00 | Fair | CLR | 57.9 | 37.9 | 48% | 29.96 | 1014.3 | |||||||
| 04 | 07:56 | SW 13 G 21 | 10.00 | Fair | CLR | 55.9 | 37 | 55.9 | 48.9 | 49% | 29.95 | 1014.3 | |||||
| 04 | 06:56 | SW 9 | 10.00 | Fair | CLR | 52 | 37.9 | 59% | 29.96 | 1014.4 | |||||||
| 04 | 05:56 | SW 8 | 10.00 | Fair | CLR | 50 | 36 | 59% | 47 | 29.94 | 1013.9 | ||||||
| 04 | 04:56 | SW 8 | 10.00 | Fair | CLR | 51.1 | 33.1 | 50% | 29.93 | 1013.6 | |||||||
| 04 | 03:56 | SW 7 | 10.00 | Fair | CLR | 51.1 | 33.1 | 50% | 29.92 | 1013.3 | |||||||
| 04 | 02:56 | SW 7 | 10.00 | Fair | CLR | 50 | 34 | 54% | 48 | 29.91 | 1012.9 | ||||||
| 04 | 01:56 | W 6 | 10.00 | Fair | CLR | 48.9 | 37 | 54 | 43 | 64% | 47 | 29.91 | 1012.8 | ||||
| 04 | 00:56 | SW 5 | 10.00 | Fair | CLR | 48.9 | 37 | 64% | 48 | 29.9 | 1012.6 | ||||||
| 03 | 23:56 | SW 3 | 10.00 | Fair | CLR | 44.1 | 30 | 58% | 29.9 | 1012.5 | |||||||
| 03 | 22:56 | Calm | 10.00 | Fair | CLR | 44.1 | 26.1 | 49% | 29.9 | 1012.4 | |||||||
| 03 | 21:56 | Calm | 10.00 | Fair | CLR | 46 | 25 | 44% | 29.89 | 1012.3 | |||||||
| 03 | 20:56 | Calm | 10.00 | Overcast | OVC100 | 48.9 | 25 | 39% | 29.88 | 1011.6 | |||||||
| 03 | 19:56 | W 5 | 10.00 | Fair | CLR | 54 | 24.1 | 57.9 | 53.1 | 31% | 29.85 | 1010.8 | |||||
| 03 | 18:56 | NW 10 | 10.00 | Fair | CLR | 57 | 21.9 | 26% | 29.84 | 1010.4 | |||||||
| 03 | 17:56 | NW 14 G 26 | 10.00 | Fair | CLR | 57 | 21.9 | 26% | 29.83 | 1010.0 | |||||||
| 03 | 16:56 | NW 18 G 37 | 10.00 | Fair | CLR | 57 | 23 | 27% | 29.82 | 1009.7 | |||||||
| 03 | 15:56 | NW 23 G 37 | 10.00 | Partly Cloudy and Breezy | SCT070 | 57 | 25 | 29% | 29.82 | 1009.9 | |||||||
| 03 | 14:56 | NW 16 G 36 | 10.00 | Mostly Cloudy | BKN075 | 55.9 | 23 | 28% | 29.82 | 1009.7 | |||||||
| 03 | 13:56 | NW 15 G 29 | 10.00 | Mostly Cloudy | BKN070 | 53.1 | 23 | 55 | 45 | 31% | 29.83 | 1009.9 | |||||
| 03 | 12:56 | NW 16 G 29 | 10.00 | Overcast | SCT060 OVC080 | 54 | 26.1 | 34% | 29.83 | 1010.1 | |||||||
| 03 | 11:56 | NW 17 G 37 | 10.00 | Mostly Cloudy | FEW060 BKN085 | 53.1 | 26.1 | 35% | 29.83 | 1010.2 | |||||||
| 03 | 09:56 | NW 20 G 29 | 10.00 | Fair | CLR | 50 | 30 | 46% | 44 | 29.83 | 1010.0 | ||||||
| 03 | 08:56 | NW 21 G 28 | 10.00 | Partly Cloudy and Breezy | SCT095 | 46.9 | 30 | 52% | 40 | 29.83 | 1010.0 | ||||||
| Date | Time (edt) | Wind (mph) | Vis. (mi.) | Weather | Sky Cond. | Air | Dwpt | Max. | Min. | Relative Humidity | Wind Chill (°F) | Heat Index (°F) | altimeter (in) | sea level (mb) | 1 hr | 3 hr | 6 hr |
| 6 hour | |||||||||||||||||
| Temperature (ºF) | Pressure | Precipitation (in) | |||||||||||||||